Time;durP1;ratioP1;P1;durP2;ratioP2;P2;SDS_P1;SDS_P2;PMS_P1;PMS_P2;Temp;Humidity;BMP_temperature;BMP_pressure;BME280_temperature;BME280_humidity;BME280_pressure;Samples;Min_cycle;Max_cycle;Signal;HPM_P1;HPM_P2
2023/09/30 00:02:25;;;;;;;10.03;6.93;;;;;12.20;102011.00;;;;10332899;28;20865;-81
2023/09/30 00:07:27;;;;;;;12.57;6.17;;;;;12.20;101996.00;;;;10342519;28;20284;-81
2023/09/30 00:12:29;;;;;;;10.80;6.20;;;;;12.10;101999.00;;;;10312265;28;20211;-81
2023/09/30 00:17:31;;;;;;;14.20;6.07;;;;;12.10;101991.00;;;;10322951;28;20210;-82
2023/09/30 00:22:33;;;;;;;12.33;6.50;;;;;12.10;101991.00;;;;10347393;28;20208;-81
2023/09/30 00:27:35;;;;;;;13.63;7.23;;;;;12.00;101983.00;;;;10306743;28;20223;-81
2023/09/30 00:32:39;;;;;;;12.13;6.83;;;;;12.10;101983.00;;;;10320554;28;20207;-81
2023/09/30 00:37:41;;;;;;;10.33;6.87;;;;;12.10;101998.00;;;;10337130;28;20932;-82
2023/09/30 00:42:43;;;;;;;14.03;7.13;;;;;12.00;102002.00;;;;10323474;28;20247;-81
2023/09/30 00:47:45;;;;;;;11.60;7.30;;;;;12.00;102000.00;;;;10324742;28;20199;-82
2023/09/30 00:52:49;;;;;;;10.97;6.73;;;;;12.00;102017.00;;;;10338687;28;20308;-82
2023/09/30 00:57:51;;;;;;;16.37;7.90;;;;;11.90;102005.00;;;;10341613;28;20212;-82
2023/09/30 01:02:53;;;;;;;15.60;8.60;;;;;12.00;102020.00;;;;10313909;28;20255;-82
2023/09/30 01:07:56;;;;;;;13.63;8.50;;;;;12.00;102024.00;;;;10333466;28;20263;-83
2023/09/30 01:12:57;;;;;;;16.43;8.97;;;;;11.90;102014.00;;;;10318335;28;20212;-83
2023/09/30 01:17:59;;;;;;;11.20;8.57;;;;;12.00;102009.00;;;;10311719;28;20203;-83
2023/09/30 01:23:02;;;;;;;12.73;8.70;;;;;11.90;102013.00;;;;10338913;28;20208;-83
2023/09/30 01:28:07;;;;;;;13.93;9.13;;;;;11.90;102016.00;;;;10336807;28;20210;-83
2023/09/30 01:33:09;;;;;;;15.50;9.23;;;;;11.80;102000.00;;;;10321882;28;20242;-83
2023/09/30 01:38:11;;;;;;;21.23;10.30;;;;;11.80;102014.00;;;;10318017;28;20208;-83
2023/09/30 01:43:14;;;;;;;16.10;9.83;;;;;11.70;102022.00;;;;10317528;28;20203;-83
2023/09/30 01:48:16;;;;;;;13.90;10.33;;;;;11.60;102014.00;;;;10341002;28;20203;-83
2023/09/30 01:53:18;;;;;;;16.03;10.33;;;;;11.60;102016.00;;;;10309506;28;20224;-83
2023/09/30 01:58:20;;;;;;;13.57;10.17;;;;;11.60;102021.00;;;;10321487;28;20204;-82
2023/09/30 02:03:21;;;;;;;21.70;11.33;;;;;11.50;102035.00;;;;10320319;28;20207;-82
2023/09/30 02:08:24;;;;;;;22.77;12.10;;;;;11.50;102024.00;;;;10309226;28;20280;-83
2023/09/30 02:13:26;;;;;;;20.83;11.37;;;;;11.50;102031.00;;;;10337267;28;20650;-84
2023/09/30 02:18:32;;;;;;;19.77;11.27;;;;;11.40;102022.00;;;;10315555;28;20203;-84
2023/09/30 02:23:35;;;;;;;15.60;10.13;;;;;11.40;102030.00;;;;10302070;28;20577;-83
2023/09/30 02:28:37;;;;;;;19.40;10.60;;;;;11.30;102027.00;;;;10315234;28;20202;-81
2023/09/30 02:33:39;;;;;;;22.77;12.47;;;;;11.30;102024.00;;;;10307908;28;20215;-81
2023/09/30 02:38:43;;;;;;;19.83;12.33;;;;;11.30;102023.00;;;;10325315;28;20207;-83
2023/09/30 02:43:46;;;;;;;20.57;11.97;;;;;11.30;102029.00;;;;10326034;28;20235;-82
2023/09/30 02:48:48;;;;;;;25.90;12.07;;;;;11.40;102037.00;;;;10338577;28;20216;-82
2023/09/30 02:53:50;;;;;;;22.57;12.80;;;;;11.40;102044.00;;;;10308967;28;20219;-82
2023/09/30 02:58:52;;;;;;;22.17;11.73;;;;;11.40;102027.00;;;;10330477;28;20203;-82
2023/09/30 03:03:55;;;;;;;20.87;11.27;;;;;11.40;102021.00;;;;10327905;28;20311;-82
2023/09/30 03:08:57;;;;;;;23.60;12.53;;;;;11.40;102016.00;;;;10328540;28;20266;-82
2023/09/30 03:13:59;;;;;;;17.77;11.07;;;;;11.50;102020.00;;;;10329687;28;20312;-82
2023/09/30 03:19:06;;;;;;;22.07;11.30;;;;;11.50;102011.00;;;;10318375;28;20235;-85
2023/09/30 03:24:08;;;;;;;18.30;10.47;;;;;11.60;102017.00;;;;10324158;28;20254;-85
2023/09/30 03:29:10;;;;;;;23.80;10.57;;;;;11.60;102035.00;;;;10331033;28;20274;-85
2023/09/30 03:34:13;;;;;;;28.43;11.53;;;;;11.60;102034.00;;;;10311790;28;20303;-84
2023/09/30 03:39:15;;;;;;;21.47;10.47;;;;;11.50;102007.00;;;;10330461;28;20293;-85
2023/09/30 03:44:17;;;;;;;20.83;10.27;;;;;11.50;102006.00;;;;10324514;28;20203;-86
2023/09/30 03:49:19;;;;;;;22.27;10.13;;;;;11.40;102016.00;;;;10327397;28;20265;-86
2023/09/30 03:54:21;;;;;;;19.10;10.80;;;;;11.40;102010.00;;;;10347667;28;20227;-84
2023/09/30 03:59:23;;;;;;;17.47;10.20;;;;;11.30;102024.00;;;;10329858;28;20294;-85
2023/09/30 04:04:26;;;;;;;21.43;10.67;;;;;11.30;102013.00;;;;10337733;28;20196;-85
2023/09/30 04:09:28;;;;;;;23.53;10.37;;;;;11.20;102012.00;;;;10361341;28;20238;-85
2023/09/30 04:14:29;;;;;;;24.87;10.60;;;;;11.20;102016.00;;;;10353695;28;20222;-85
2023/09/30 04:19:32;;;;;;;24.90;10.37;;;;;11.10;102004.00;;;;10349775;28;20323;-86
2023/09/30 04:24:34;;;;;;;31.93;11.60;;;;;11.00;101998.00;;;;10312571;28;20526;-85
2023/09/30 04:29:36;;;;;;;28.93;11.50;;;;;11.00;101995.00;;;;10339806;28;20215;-82
2023/09/30 04:34:38;;;;;;;24.10;11.60;;;;;11.00;102003.00;;;;10324172;28;20703;-82
2023/09/30 04:39:39;;;;;;;21.03;12.37;;;;;11.00;102003.00;;;;10329462;28;20812;-82
2023/09/30 04:44:41;;;;;;;30.03;13.57;;;;;11.00;102009.00;;;;10318842;28;20207;-82
2023/09/30 04:49:43;;;;;;;27.67;13.70;;;;;11.00;102009.00;;;;10338820;28;20204;-82
2023/09/30 04:54:45;;;;;;;32.77;13.87;;;;;11.00;102022.00;;;;10342237;28;20242;-82
2023/09/30 04:59:47;;;;;;;36.67;12.90;;;;;11.00;102019.00;;;;10307323;28;20254;-82
2023/09/30 05:04:49;;;;;;;39.03;15.07;;;;;11.00;102010.00;;;;10336303;28;20921;-82
2023/09/30 05:09:53;;;;;;;30.87;15.10;;;;;11.00;102026.00;;;;10317797;28;20622;-83
2023/09/30 05:14:55;;;;;;;37.87;13.93;;;;;11.00;102016.00;;;;10310928;28;20231;-82
2023/09/30 05:19:58;;;;;;;37.47;13.07;;;;;11.10;102028.00;;;;10317161;28;20207;-81
2023/09/30 05:25:00;;;;;;;32.93;13.33;;;;;11.10;102028.00;;;;10319266;28;20208;-82
2023/09/30 05:30:05;;;;;;;39.80;13.10;;;;;11.10;102026.00;;;;10333839;28;20649;-82
2023/09/30 05:35:12;;;;;;;37.77;12.87;;;;;11.00;102018.00;;;;10308973;28;20287;-82
2023/09/30 05:40:30;;;;;;;30.93;13.13;;;;;11.00;102028.00;;;;10339224;28;20203;-82
2023/09/30 05:45:35;;;;;;;37.70;13.37;;;;;11.00;102030.00;;;;10312925;28;20207;-82
2023/09/30 05:50:38;;;;;;;38.77;13.40;;;;;11.00;102044.00;;;;10335100;28;20288;-82
2023/09/30 05:55:45;;;;;;;32.27;12.70;;;;;11.00;102036.00;;;;10313519;28;20318;-81
2023/09/30 06:00:48;;;;;;;39.70;14.17;;;;;11.10;102047.00;;;;10315648;28;20877;-81
2023/09/30 06:05:50;;;;;;;36.03;13.03;;;;;11.10;102046.00;;;;10311677;28;20215;-81
2023/09/30 06:10:54;;;;;;;41.10;13.80;;;;;11.20;102032.00;;;;10340702;28;20204;-82
2023/09/30 06:15:56;;;;;;;39.60;14.27;;;;;11.40;102010.00;;;;10312892;28;20219;-82
2023/09/30 06:20:58;;;;;;;37.80;14.30;;;;;11.50;102030.00;;;;10303980;28;20204;-82
2023/09/30 06:26:02;;;;;;;37.00;15.27;;;;;11.70;102044.00;;;;10323892;28;20226;-83
2023/09/30 06:31:05;;;;;;;36.00;14.63;;;;;11.90;102053.00;;;;10312981;28;20209;-82
2023/09/30 06:36:13;;;;;;;32.97;14.47;;;;;12.00;102052.00;;;;10352652;28;20220;-82
2023/09/30 06:41:19;;;;;;;33.37;14.80;;;;;12.20;102063.00;;;;10306289;28;20238;-82
2023/09/30 06:46:21;;;;;;;37.70;14.03;;;;;12.30;102082.00;;;;10312790;28;20696;-81
2023/09/30 06:51:23;;;;;;;40.13;14.80;;;;;12.50;102079.00;;;;10329397;28;20269;-82
2023/09/30 06:56:26;;;;;;;41.57;14.53;;;;;12.70;102094.00;;;;10329035;28;20211;-82
2023/09/30 07:01:28;;;;;;;32.07;12.63;;;;;12.90;102103.00;;;;10318443;28;20207;-82
2023/09/30 07:06:30;;;;;;;36.67;12.80;;;;;13.10;102110.00;;;;10330819;28;20299;-82
2023/09/30 07:11:33;;;;;;;30.07;12.93;;;;;13.40;102127.00;;;;10332210;28;20716;-83
2023/09/30 07:16:35;;;;;;;32.13;11.43;;;;;13.70;102130.00;;;;10311875;28;20232;-82
2023/09/30 07:21:37;;;;;;;37.67;12.25;;;;;13.90;102119.00;;;;10325420;28;20215;-83
2023/09/30 07:26:39;;;;;;;36.55;12.52;;;;;14.10;102110.00;;;;10316826;28;20299;-83
2023/09/30 07:31:41;;;;;;;34.53;12.27;;;;;14.40;102111.00;;;;10338752;28;20869;-84
2023/09/30 07:36:43;;;;;;;34.58;11.73;;;;;14.50;102120.00;;;;10324660;28;20269;-84
2023/09/30 07:41:45;;;;;;;30.52;10.85;;;;;14.70;102133.00;;;;10338265;28;20846;-83
2023/09/30 07:46:47;;;;;;;34.10;12.50;;;;;14.80;102147.00;;;;10354315;28;20211;-83
2023/09/30 07:51:49;;;;;;;30.13;10.98;;;;;15.10;102136.00;;;;10313687;28;20215;-83
2023/09/30 07:56:51;;;;;;;35.92;10.68;;;;;15.30;102121.00;;;;10319118;28;20342;-83
2023/09/30 08:01:53;;;;;;;28.33;9.52;;;;;15.60;102128.00;;;;10314218;28;20208;-79
2023/09/30 08:06:56;;;;;;;25.40;9.77;;;;;15.90;102134.00;;;;10361503;28;20452;-80
2023/09/30 08:11:58;;;;;;;32.08;8.68;;;;;16.20;102128.00;;;;10321887;28;20294;-78
2023/09/30 08:17:00;;;;;;;29.77;9.07;;;;;16.60;102138.00;;;;10334572;28;20243;-81
2023/09/30 08:22:06;;;;;;;22.45;7.80;;;;;16.90;102150.00;;;;10323103;28;20211;-80
2023/09/30 08:27:08;;;;;;;23.95;8.15;;;;;17.20;102144.00;;;;10329852;28;20779;-77
2023/09/30 08:32:10;;;;;;;26.58;8.02;;;;;17.60;102133.00;;;;10338672;28;20259;-79
2023/09/30 08:37:12;;;;;;;24.88;7.18;;;;;17.90;102140.00;;;;10329795;28;20218;-78
2023/09/30 08:42:14;;;;;;;23.17;6.30;;;;;18.20;102144.00;;;;10334139;28;20231;-80
2023/09/30 08:47:16;;;;;;;22.63;6.55;;;;;18.60;102132.00;;;;10340248;28;20203;-79
2023/09/30 08:52:18;;;;;;;20.55;5.80;;;;;18.70;102126.00;;;;10356492;28;20207;-82
2023/09/30 08:57:20;;;;;;;16.38;5.25;;;;;19.00;102125.00;;;;10331727;28;20277;-80
2023/09/30 09:02:22;;;;;;;14.50;5.60;;;;;19.10;102128.00;;;;10335859;28;20207;-80
2023/09/30 09:07:24;;;;;;;16.02;4.38;;;;;19.40;102135.00;;;;10351513;28;20230;-77
2023/09/30 09:12:27;;;;;;;15.55;4.55;;;;;19.70;102147.00;;;;10326018;28;20879;-87
2023/09/30 09:17:50;;;;;;;12.63;4.32;;;;;19.90;102156.00;;;;10337517;28;20491;-88
2023/09/30 09:22:55;;;;;;;15.52;3.97;;;;;20.00;102164.00;;;;10319012;28;20282;-84
2023/09/30 09:27:59;;;;;;;13.88;4.75;;;;;19.90;102177.00;;;;10345899;28;20318;-86
2023/09/30 09:33:05;;;;;;;8.88;3.22;;;;;20.20;102187.00;;;;10335718;28;20200;-88
2023/09/30 09:38:08;;;;;;;15.75;4.53;;;;;20.30;102168.00;;;;10350555;28;20270;-88
2023/09/30 09:43:11;;;;;;;16.77;4.95;;;;;20.40;102171.00;;;;10325922;28;20211;-87
2023/09/30 09:48:13;;;;;;;14.73;4.55;;;;;20.40;102185.00;;;;10349754;28;20214;-89
2023/09/30 09:53:16;;;;;;;13.23;4.20;;;;;20.40;102186.00;;;;10354709;28;20208;-87
2023/09/30 09:58:20;;;;;;;15.27;4.13;;;;;20.50;102188.00;;;;10345057;28;20228;-88
2023/09/30 10:03:22;;;;;;;9.38;4.00;;;;;20.40;102191.00;;;;10353967;28;20211;-87
2023/09/30 10:08:33;;;;;;;13.77;4.40;;;;;20.50;102211.00;;;;10343731;28;20230;-86
2023/09/30 10:14:00;;;;;;;15.65;4.45;;;;;20.80;102209.00;;;;10318923;28;20549;-86
2023/09/30 10:19:22;;;;;;;12.90;3.78;;;;;21.20;102199.00;;;;10343225;28;20677;-83
2023/09/30 10:24:24;;;;;;;9.73;4.10;;;;;21.50;102192.00;;;;10385532;28;20210;-84
2023/09/30 10:29:40;;;;;;;11.75;4.07;;;;;21.80;102195.00;;;;10346806;28;20231;-86
2023/09/30 10:34:51;;;;;;;14.00;4.00;;;;;22.00;102191.00;;;;10308784;28;20218;-87
2023/09/30 10:39:58;;;;;;;8.70;3.45;;;;;22.40;102178.00;;;;10320234;28;20236;-87
2023/09/30 10:45:04;;;;;;;11.15;3.42;;;;;21.80;102175.00;;;;10326229;28;20208;-87
2023/09/30 10:50:44;;;;;;;12.07;4.32;;;;;22.10;102166.00;;;;10317364;28;20203;-88
2023/09/30 10:55:46;;;;;;;9.98;3.50;;;;;22.90;102164.00;;;;10325682;28;20274;-88
2023/09/30 11:00:55;;;;;;;9.07;3.67;;;;;22.80;102166.00;;;;10336363;28;20214;-88
2023/09/30 11:05:58;;;;;;;7.18;3.47;;;;;23.70;102158.00;;;;10320686;28;20207;-90
2023/09/30 11:11:14;;;;;;;11.07;3.80;;;;;24.10;102151.00;;;;10332393;28;20211;-89
2023/09/30 11:16:16;;;;;;;10.35;3.65;;;;;24.20;102149.00;;;;10332422;28;20933;-87
2023/09/30 11:21:18;;;;;;;9.85;3.45;;;;;24.50;102148.00;;;;10317948;28;20728;-89
2023/09/30 11:26:32;;;;;;;10.32;3.97;;;;;24.80;102145.00;;;;10316297;28;20586;-87
2023/09/30 11:31:37;;;;;;;13.32;4.25;;;;;25.00;102117.00;;;;10345287;28;20621;-82
2023/09/30 11:36:42;;;;;;;9.00;3.67;;;;;25.10;102135.00;;;;10346511;28;20780;-81
2023/09/30 11:41:44;;;;;;;8.02;3.42;;;;;24.40;102127.00;;;;10355023;28;21415;-81
2023/09/30 11:46:52;;;;;;;7.53;3.60;;;;;24.50;102108.00;;;;10356490;28;20251;-82
2023/09/30 11:51:56;;;;;;;9.15;3.63;;;;;24.60;102091.00;;;;10349647;28;20278;-82
2023/09/30 11:57:04;;;;;;;9.73;4.32;;;;;24.80;102094.00;;;;10307687;28;20266;-82
2023/09/30 12:02:10;;;;;;;8.73;4.53;;;;;24.00;102084.00;;;;10361527;28;20257;-82
2023/09/30 12:07:15;;;;;;;10.32;4.05;;;;;23.10;102095.00;;;;10356499;28;20251;-83
2023/09/30 12:12:17;;;;;;;10.60;3.88;;;;;22.30;102088.00;;;;10346824;28;20295;-82
2023/09/30 12:17:21;;;;;;;10.90;3.70;;;;;23.10;102094.00;;;;10325669;28;20207;-81
2023/09/30 12:22:23;;;;;;;12.40;4.28;;;;;22.80;102098.00;;;;10326056;28;20204;-81
2023/09/30 12:27:25;;;;;;;7.82;3.28;;;;;22.00;102101.00;;;;10321643;28;20228;-82
2023/09/30 12:32:27;;;;;;;10.38;3.42;;;;;21.70;102100.00;;;;10325467;28;20203;-81
2023/09/30 12:37:29;;;;;;;9.38;3.35;;;;;21.60;102084.00;;;;10318915;28;20204;-81
2023/09/30 12:42:31;;;;;;;11.30;3.67;;;;;22.00;102097.00;;;;10348039;28;20297;-86
2023/09/30 12:47:33;;;;;;;9.35;3.58;;;;;22.40;102088.00;;;;10339062;28;20223;-86
2023/09/30 12:52:36;;;;;;;8.07;2.75;;;;;22.20;102091.00;;;;10345976;28;20250;-87
2023/09/30 12:57:39;;;;;;;6.68;3.13;;;;;22.80;102080.00;;;;10324862;28;20238;-85
2023/09/30 13:02:41;;;;;;;11.05;3.33;;;;;23.40;102077.00;;;;10335220;28;20826;-87
2023/09/30 13:07:44;;;;;;;7.97;3.10;;;;;23.80;102077.00;;;;10319806;28;20224;-88
2023/09/30 13:12:46;;;;;;;9.07;3.05;;;;;24.00;102071.00;;;;10343113;28;20208;-84
2023/09/30 13:17:47;;;;;;;8.48;3.05;;;;;23.70;102060.00;;;;10317929;28;20216;-86
2023/09/30 13:22:49;;;;;;;10.40;3.03;;;;;23.70;102047.00;;;;10306538;28;20212;-85
2023/09/30 13:27:51;;;;;;;7.88;2.75;;;;;23.40;102060.00;;;;10363030;28;20319;-84
2023/09/30 13:32:53;;;;;;;6.15;3.08;;;;;23.00;102065.00;;;;10330655;28;20291;-86
2023/09/30 13:37:55;;;;;;;7.25;3.25;;;;;22.90;102054.00;;;;10331585;28;20685;-87
2023/09/30 13:42:58;;;;;;;8.35;3.05;;;;;23.30;102035.00;;;;10324168;28;20266;-85
2023/09/30 13:48:01;;;;;;;5.68;3.20;;;;;22.80;102047.00;;;;10305150;28;20219;-86
2023/09/30 13:53:05;;;;;;;7.72;2.80;;;;;22.50;102039.00;;;;10344533;28;20276;-84
2023/09/30 13:58:07;;;;;;;6.32;2.63;;;;;22.50;102044.00;;;;10344840;28;20203;-85
2023/09/30 14:03:09;;;;;;;8.13;3.05;;;;;22.50;102050.00;;;;10354783;28;20434;-85
2023/09/30 14:08:12;;;;;;;7.93;3.22;;;;;22.70;102022.00;;;;10361126;28;20235;-84
2023/09/30 14:13:14;;;;;;;9.10;3.00;;;;;22.50;102018.00;;;;10329959;28;20231;-85
2023/09/30 14:18:16;;;;;;;6.53;2.95;;;;;22.30;101998.00;;;;10352739;28;20216;-85
2023/09/30 14:23:19;;;;;;;7.93;3.15;;;;;22.20;101973.00;;;;10333563;28;20204;-85
2023/09/30 14:28:21;;;;;;;9.98;3.03;;;;;21.90;101968.00;;;;10324845;28;20274;-86
2023/09/30 14:33:23;;;;;;;7.55;2.80;;;;;21.80;101979.00;;;;10333621;28;20211;-85
2023/09/30 14:38:25;;;;;;;6.45;3.15;;;;;21.50;101985.00;;;;10341928;28;20208;-85
2023/09/30 14:43:27;;;;;;;9.73;3.17;;;;;21.30;101974.00;;;;10333736;28;20298;-85
2023/09/30 14:48:30;;;;;;;7.45;2.92;;;;;21.10;101973.00;;;;10348910;28;20745;-84
2023/09/30 14:53:32;;;;;;;7.00;2.90;;;;;20.90;101977.00;;;;10348341;28;20195;-85
2023/09/30 14:58:33;;;;;;;5.68;2.85;;;;;20.80;101979.00;;;;10356497;28;20830;-85
2023/09/30 15:03:37;;;;;;;8.05;2.90;;;;;20.70;101988.00;;;;10316694;28;20882;-87
2023/09/30 15:08:39;;;;;;;10.30;3.00;;;;;20.50;101993.00;;;;10309511;28;20311;-88
2023/09/30 15:13:43;;;;;;;5.95;2.47;;;;;20.40;101987.00;;;;10333840;28;20230;-87
2023/09/30 15:18:46;;;;;;;6.18;2.70;;;;;20.30;101993.00;;;;10315649;28;20238;-87
2023/09/30 15:23:48;;;;;;;8.50;2.97;;;;;20.30;101996.00;;;;10334650;28;20685;-84
2023/09/30 15:28:51;;;;;;;7.75;3.03;;;;;20.10;101990.00;;;;10338159;28;20306;-86
2023/09/30 15:33:53;;;;;;;9.93;2.75;;;;;19.90;101988.00;;;;10319791;28;20294;-87
2023/09/30 15:38:56;;;;;;;7.15;2.65;;;;;19.90;101988.00;;;;10312266;28;20204;-86
2023/09/30 15:44:01;;;;;;;9.20;2.72;;;;;19.70;101972.00;;;;10324576;28;20856;-87
2023/09/30 15:49:04;;;;;;;6.03;2.40;;;;;19.70;101978.00;;;;10323755;28;20298;-85
2023/09/30 15:54:06;;;;;;;7.90;2.47;;;;;19.70;101978.00;;;;10315774;28;20222;-87
2023/09/30 15:59:08;;;;;;;8.13;2.92;;;;;19.50;101969.00;;;;10337653;28;20676;-87
2023/09/30 16:04:11;;;;;;;6.13;2.67;;;;;19.40;101977.00;;;;10334278;28;20238;-87
2023/09/30 16:09:13;;;;;;;7.07;2.72;;;;;19.20;101979.00;;;;10313588;28;20216;-84
2023/09/30 16:14:15;;;;;;;6.38;2.35;;;;;19.00;101967.00;;;;10359720;28;20203;-84
2023/09/30 16:19:18;;;;;;;5.90;2.58;;;;;18.80;101982.00;;;;10314284;28;20254;-85
2023/09/30 16:24:20;;;;;;;4.55;2.20;;;;;18.60;101964.00;;;;10315921;28;20257;-84
2023/09/30 16:29:22;;;;;;;4.72;2.55;;;;;18.50;101966.00;;;;10336859;28;20247;-83
2023/09/30 16:34:24;;;;;;;5.32;2.30;;;;;18.50;101969.00;;;;10348982;28;20262;-84
2023/09/30 16:39:27;;;;;;;5.88;2.53;;;;;18.30;101971.00;;;;10322163;28;20314;-83
2023/09/30 16:44:28;;;;;;;7.40;2.45;;;;;18.20;101984.00;;;;10355588;28;20967;-84
2023/09/30 16:49:31;;;;;;;6.60;2.38;;;;;18.00;101990.00;;;;10335012;28;20230;-82
2023/09/30 16:54:33;;;;;;;5.75;2.80;;;;;17.80;101991.00;;;;10327919;28;20204;-85
2023/09/30 16:59:35;;;;;;;6.93;2.42;;;;;17.60;102003.00;;;;10326520;28;20212;-84
2023/09/30 17:04:42;;;;;;;7.97;2.75;;;;;17.40;101992.00;;;;10332020;28;20665;-84
2023/09/30 17:09:44;;;;;;;9.93;2.78;;;;;17.20;101993.00;;;;10312629;28;20220;-83
2023/09/30 17:14:46;;;;;;;6.88;2.75;;;;;17.00;101980.00;;;;10330774;28;20294;-84
2023/09/30 17:19:48;;;;;;;8.18;2.80;;;;;16.80;101990.00;;;;10332798;28;20794;-83
2023/09/30 17:24:51;;;;;;;6.20;2.78;;;;;16.70;101991.00;;;;10324355;28;20669;-83
2023/09/30 17:29:53;;;;;;;12.80;3.40;;;;;16.50;101997.00;;;;10332253;28;20219;-82
2023/09/30 17:34:55;;;;;;;8.77;2.80;;;;;16.40;101994.00;;;;10319106;28;20238;-84
2023/09/30 17:39:57;;;;;;;7.68;2.72;;;;;16.30;101990.00;;;;10329796;28;20823;-83
2023/09/30 17:44:59;;;;;;;5.53;2.63;;;;;16.20;101995.00;;;;10342496;28;20302;-84
2023/09/30 17:50:04;;;;;;;9.65;3.67;;;;;16.30;102007.00;;;;10335247;28;20215;-84
2023/09/30 17:55:06;;;;;;;8.15;2.92;;;;;16.30;102010.00;;;;10302670;28;20827;-83
2023/09/30 18:00:09;;;;;;;10.13;3.50;;;;;16.20;102010.00;;;;10314791;28;20831;-83
2023/09/30 18:05:11;;;;;;;8.15;2.97;;;;;16.00;102002.00;;;;10309265;28;20211;-83
2023/09/30 18:10:14;;;;;;;8.10;2.80;;;;;15.90;102004.00;;;;10328136;28;20269;-82
2023/09/30 18:15:16;;;;;;;6.13;2.83;;;;;15.80;101999.00;;;;10325782;28;20196;-82
2023/09/30 18:20:18;;;;;;;9.23;3.00;;;;;15.80;102001.00;;;;10320283;28;20200;-83
2023/09/30 18:25:21;;;;;;;6.85;3.53;;;;;15.80;101989.00;;;;10315723;28;20681;-83
2023/09/30 18:30:23;;;;;;;10.48;5.25;;;;;15.90;101984.00;;;;10335316;28;20764;-82
2023/09/30 18:35:25;;;;;;;11.18;4.40;;;;;15.90;101996.00;;;;10301681;28;20215;-81
2023/09/30 18:40:31;;;;;;;9.65;4.53;;;;;15.80;101986.00;;;;10306215;28;20633;-82
2023/09/30 18:45:32;;;;;;;8.05;4.22;;;;;15.60;101970.00;;;;10330646;28;20215;-81
2023/09/30 18:50:42;;;;;;;9.75;5.07;;;;;15.50;101965.00;;;;10318174;28;20219;-82
2023/09/30 18:55:49;;;;;;;11.98;7.45;;;;;15.30;101974.00;;;;10319380;28;20211;-81
2023/09/30 19:00:51;;;;;;;7.68;5.03;;;;;15.10;101964.00;;;;10314571;28;20231;-82
2023/09/30 19:05:55;;;;;;;10.13;4.30;;;;;15.00;101962.00;;;;10349254;28;20234;-82
2023/09/30 19:11:02;;;;;;;9.13;3.80;;;;;14.90;101958.00;;;;10326495;28;20269;-81
2023/09/30 19:16:04;;;;;;;6.90;4.30;;;;;14.90;101956.00;;;;10318579;28;20208;-81
2023/09/30 19:21:06;;;;;;;9.98;4.30;;;;;14.80;101966.00;;;;10332753;28;20203;-81
2023/09/30 19:26:15;;;;;;;10.38;4.80;;;;;14.60;101960.00;;;;10349490;28;20222;-82
2023/09/30 19:31:17;;;;;;;11.80;4.32;;;;;14.40;101969.00;;;;10352223;28;20330;-82
2023/09/30 19:36:19;;;;;;;9.52;4.18;;;;;14.30;101963.00;;;;10350601;28;20881;-81
2023/09/30 19:41:22;;;;;;;8.50;4.05;;;;;14.10;101971.00;;;;10352545;28;20195;-79
2023/09/30 19:46:24;;;;;;;9.77;3.97;;;;;14.10;101975.00;;;;10321847;28;20597;-80
2023/09/30 19:51:26;;;;;;;10.20;4.60;;;;;14.00;101982.00;;;;10308765;28;20214;-82
2023/09/30 19:56:28;;;;;;;10.52;4.53;;;;;13.90;101980.00;;;;10316286;28;20233;-79
2023/09/30 20:01:30;;;;;;;10.88;4.78;;;;;13.90;101973.00;;;;10340334;28;20318;-78
2023/09/30 20:06:32;;;;;;;10.68;4.95;;;;;13.80;101971.00;;;;10320056;28;20227;-81
2023/09/30 20:11:35;;;;;;;10.57;4.88;;;;;13.70;101980.00;;;;10347458;28;20239;-79
2023/09/30 20:16:38;;;;;;;10.63;5.05;;;;;13.60;101982.00;;;;10308441;28;20267;-80
2023/09/30 20:21:40;;;;;;;11.73;4.45;;;;;13.50;101978.00;;;;10347740;28;20248;-79
2023/09/30 20:26:42;;;;;;;10.70;4.68;;;;;13.50;101985.00;;;;10315934;28;20794;-79
2023/09/30 20:31:44;;;;;;;12.02;5.20;;;;;13.50;101983.00;;;;10326842;28;20211;-79
2023/09/30 20:36:46;;;;;;;8.75;4.88;;;;;13.30;101975.00;;;;10337770;28;20196;-79
2023/09/30 20:41:51;;;;;;;13.97;4.87;;;;;13.30;101982.00;;;;10332632;28;20273;-80
2023/09/30 20:46:53;;;;;;;8.63;4.28;;;;;13.30;101967.00;;;;10333210;28;20231;-79
2023/09/30 20:51:55;;;;;;;9.52;4.68;;;;;13.20;101966.00;;;;10348417;28;20284;-82
2023/09/30 20:56:59;;;;;;;6.20;4.07;;;;;13.20;101971.00;;;;10320569;28;20262;-82
2023/09/30 21:02:03;;;;;;;7.07;3.95;;;;;13.20;101964.00;;;;10336226;28;20710;-82
2023/09/30 21:07:05;;;;;;;11.13;4.38;;;;;13.20;101974.00;;;;10334207;28;20581;-82
2023/09/30 21:12:08;;;;;;;9.30;4.13;;;;;13.20;101972.00;;;;10314419;28;20258;-81
2023/09/30 21:17:10;;;;;;;7.47;4.60;;;;;13.10;101967.00;;;;10334746;28;20227;-82
2023/09/30 21:22:12;;;;;;;8.63;4.10;;;;;13.10;101963.00;;;;10319312;28;20291;-82
2023/09/30 21:27:14;;;;;;;10.13;4.30;;;;;13.00;101961.00;;;;10307385;28;20664;-82
2023/09/30 21:32:16;;;;;;;8.95;4.35;;;;;13.00;101946.00;;;;10322886;28;20683;-82
2023/09/30 21:37:18;;;;;;;7.07;3.63;;;;;12.90;101948.00;;;;10322222;28;20211;-82
2023/09/30 21:42:19;;;;;;;6.00;3.47;;;;;12.90;101943.00;;;;10343320;28;20261;-82
2023/09/30 21:47:21;;;;;;;7.90;3.33;;;;;13.00;101943.00;;;;10304244;28;20310;-82
2023/09/30 21:52:23;;;;;;;7.83;3.60;;;;;13.00;101954.00;;;;10340570;28;20228;-82
2023/09/30 21:57:25;;;;;;;8.07;3.20;;;;;13.00;101947.00;;;;10326287;28;20616;-83
2023/09/30 22:02:29;;;;;;;6.13;3.63;;;;;13.00;101940.00;;;;10330200;28;20250;-86
2023/09/30 22:07:31;;;;;;;8.37;3.20;;;;;13.00;101940.00;;;;10326292;28;20215;-86
2023/09/30 22:12:33;;;;;;;10.50;3.40;;;;;12.90;101942.00;;;;10321170;28;20215;-85
2023/09/30 22:17:35;;;;;;;9.57;2.93;;;;;12.90;101941.00;;;;10349418;28;20224;-86
2023/09/30 22:22:37;;;;;;;8.40;3.27;;;;;12.80;101937.00;;;;10336380;28;20217;-84
2023/09/30 22:27:40;;;;;;;6.60;2.97;;;;;12.80;101942.00;;;;10325825;28;20255;-84
2023/09/30 22:32:42;;;;;;;9.77;3.30;;;;;12.80;101946.00;;;;10341953;28;20204;-84
2023/09/30 22:37:44;;;;;;;8.33;3.40;;;;;12.70;101943.00;;;;10336184;28;20227;-86
2023/09/30 22:42:46;;;;;;;8.83;3.47;;;;;12.70;101943.00;;;;10341791;28;20278;-84
2023/09/30 22:47:50;;;;;;;8.00;3.60;;;;;12.70;101948.00;;;;10387884;28;20295;-84
2023/09/30 22:52:53;;;;;;;7.30;3.50;;;;;12.70;101955.00;;;;10342648;28;20208;-86
2023/09/30 22:57:55;;;;;;;5.77;3.63;;;;;12.70;101949.00;;;;10318002;28;20297;-86
2023/09/30 23:02:57;;;;;;;8.63;3.90;;;;;12.70;101938.00;;;;10337680;28;20208;-85
2023/09/30 23:08:00;;;;;;;8.97;3.53;;;;;12.70;101937.00;;;;10321955;28;20851;-85
2023/09/30 23:13:03;;;;;;;5.97;3.73;;;;;12.70;101940.00;;;;10318643;28;20195;-85
2023/09/30 23:18:05;;;;;;;8.33;3.90;;;;;12.60;101940.00;;;;10321209;28;20261;-85
2023/09/30 23:23:07;;;;;;;6.93;3.60;;;;;12.50;101939.00;;;;10316426;28;20733;-85
2023/09/30 23:28:10;;;;;;;6.83;4.07;;;;;12.40;101937.00;;;;10351827;28;20215;-85
2023/09/30 23:33:13;;;;;;;6.80;3.33;;;;;12.30;101927.00;;;;10325483;28;20203;-85
2023/09/30 23:38:14;;;;;;;6.77;3.97;;;;;12.30;101910.00;;;;10311711;28;20202;-86
2023/09/30 23:43:17;;;;;;;7.47;3.67;;;;;12.20;101910.00;;;;10322339;28;20263;-85
2023/09/30 23:48:20;;;;;;;10.10;3.57;;;;;12.20;101900.00;;;;10333530;28;20954;-85
2023/09/30 23:53:23;;;;;;;9.90;4.03;;;;;12.10;101909.00;;;;10330192;28;20235;-85
2023/09/30 23:58:26;;;;;;;6.90;3.33;;;;;12.00;101899.00;;;;10305334;28;20215;-85
